Orbital elements of FENGYUN 1C DEB
| Launched | 9 May 1999 |
| Flight ended | – |
| Launch site | Taiyuan Space Center, PRC |
| Owner | People's Republic of China |
| NORAD ID | 29795 |
| Date fetched |
Epoch osculation |
Inc. [°] |
Ecc. | RA asc node [hr] |
Arg Peri. [°] |
Mean anom [°] |
Mean motion [rev/day] |
Abs. mag |
| Date fetched |
Epoch osculation |
Inc. [°] |
Ecc. | RA asc node [hr] |
Arg Peri. [°] |
Mean anom [°] |
Mean motion [rev/day] |
Abs. mag |
| 2026 May 07 17:58 | 2026 May 05 07:50:47 | 98.8890 | 0.01109 | 16.9248 | 242.3143 | 144.5543 | 13.92979 | – |
| 2026 May 06 17:57 | 2026 May 05 07:50:47 | 98.8890 | 0.01109 | 16.9248 | 242.3143 | 144.5543 | 13.92979 | – |
| 2026 May 05 17:57 | 2026 May 05 07:50:47 | 98.8890 | 0.01109 | 16.9248 | 242.3143 | 144.5543 | 13.92979 | – |
| 2026 May 04 17:57 | 2026 Apr 30 07:11:07 | 98.8879 | 0.01108 | 16.6029 | 256.2104 | 144.5543 | 13.92979 | – |
| 2026 May 03 17:57 | 2026 Apr 30 07:11:07 | 98.8879 | 0.01108 | 16.6029 | 256.2104 | 144.5543 | 13.92979 | – |
| 2026 May 02 17:57 | 2026 Apr 30 07:11:07 | 98.8879 | 0.01108 | 16.6029 | 256.2104 | 144.5543 | 13.92979 | – |
| 2026 May 01 17:56 | 2026 Apr 30 07:11:07 | 98.8879 | 0.01108 | 16.6029 | 256.2104 | 144.5543 | 13.92979 | – |
| 2026 Apr 30 17:56 | 2026 Apr 30 07:11:07 | 98.8879 | 0.01108 | 16.6029 | 256.2104 | 144.5543 | 13.92979 | – |
| 2026 Apr 29 17:57 | 2026 Apr 24 08:05:02 | 98.8868 | 0.01107 | 16.2210 | 272.7085 | 144.5543 | 13.92979 | – |
| 2026 Apr 28 17:56 | 2026 Apr 24 08:05:02 | 98.8868 | 0.01107 | 16.2210 | 272.7085 | 144.5543 | 13.92979 | – |
| 2026 Apr 27 17:58 | 2026 Apr 24 08:05:02 | 98.8868 | 0.01107 | 16.2210 | 272.7085 | 144.5543 | 13.92979 | – |
| 2026 Apr 26 17:58 | 2026 Apr 24 08:05:02 | 98.8868 | 0.01107 | 16.2210 | 272.7085 | 144.5543 | 13.92979 | – |
| 2026 Apr 25 17:58 | 2026 Apr 24 08:05:02 | 98.8868 | 0.01107 | 16.2210 | 272.7085 | 144.5543 | 13.92979 | – |
| 2026 Apr 24 17:59 | 2026 Apr 24 08:05:02 | 98.8868 | 0.01107 | 16.2210 | 272.7085 | 144.5543 | 13.92979 | – |
| 2026 Apr 23 17:57 | 2026 Apr 18 14:07:07 | 98.8859 | 0.01108 | 15.8530 | 288.6110 | 144.5543 | 13.92979 | – |
| 2026 Apr 22 17:57 | 2026 Apr 18 14:07:07 | 98.8859 | 0.01108 | 15.8530 | 288.6110 | 144.5543 | 13.92979 | – |
| 2026 Apr 21 17:57 | 2026 Apr 18 14:07:07 | 98.8859 | 0.01108 | 15.8530 | 288.6110 | 144.5543 | 13.92979 | – |
| 2026 Apr 20 17:57 | 2026 Apr 18 14:07:07 | 98.8859 | 0.01108 | 15.8530 | 288.6110 | 144.5543 | 13.92979 | – |
| 2026 Apr 19 17:58 | 2026 Apr 18 14:07:07 | 98.8859 | 0.01108 | 15.8530 | 288.6110 | 144.5543 | 13.92979 | – |
| 2026 Apr 18 17:56 | 2026 Apr 12 15:02:01 | 98.8843 | 0.01109 | 15.4713 | 305.0965 | 144.5543 | 13.92979 | – |
| 2026 Apr 16 17:57 | 2026 Apr 12 15:02:01 | 98.8843 | 0.01109 | 15.4713 | 305.0965 | 144.5543 | 13.92979 | – |
| 2026 Apr 14 17:57 | 2026 Apr 12 15:02:01 | 98.8843 | 0.01109 | 15.4713 | 305.0965 | 144.5543 | 13.92979 | – |
| 2026 Apr 13 17:57 | 2026 Apr 12 15:02:01 | 98.8843 | 0.01109 | 15.4713 | 305.0965 | 144.5543 | 13.92979 | – |
| 2026 Apr 12 17:57 | 2026 Apr 08 07:40:26 | 98.8837 | 0.01110 | 15.1957 | 317.0006 | 144.5543 | 13.92979 | – |
| 2026 Apr 11 17:57 | 2026 Apr 08 07:40:26 | 98.8837 | 0.01110 | 15.1957 | 317.0006 | 144.5543 | 13.92979 | – |
| 2026 Apr 10 17:58 | 2026 Apr 08 07:40:26 | 98.8837 | 0.01110 | 15.1957 | 317.0006 | 144.5543 | 13.92979 | – |